sensor_id;sensor_type;location;lat;lon;timestamp;P1;durP1;ratioP1;P2;durP2;ratioP2
17171;SDS011;8701;50.150;8.756;2023-04-01T00:02:06;7.63;;;1.43;;
17171;SDS011;8701;50.150;8.756;2023-04-01T00:06:10;6.43;;;1.83;;
17171;SDS011;8701;50.150;8.756;2023-04-01T00:10:15;6.13;;;1.27;;
17171;SDS011;8701;50.150;8.756;2023-04-01T00:14:17;3.20;;;1.10;;
17171;SDS011;8701;50.150;8.756;2023-04-01T00:18:19;3.20;;;1.13;;
17171;SDS011;8701;50.150;8.756;2023-04-01T00:22:23;6.27;;;1.60;;
17171;SDS011;8701;50.150;8.756;2023-04-01T00:26:26;6.07;;;1.40;;
17171;SDS011;8701;50.150;8.756;2023-04-01T00:30:28;7.17;;;1.50;;
17171;SDS011;8701;50.150;8.756;2023-04-01T00:34:31;3.97;;;1.27;;
17171;SDS011;8701;50.150;8.756;2023-04-01T00:38:34;3.70;;;1.00;;
17171;SDS011;8701;50.150;8.756;2023-04-01T00:42:36;4.87;;;1.10;;
17171;SDS011;8701;50.150;8.756;2023-04-01T00:46:39;5.27;;;1.30;;
17171;SDS011;8701;50.150;8.756;2023-04-01T00:50:42;5.67;;;1.10;;
17171;SDS011;8701;50.150;8.756;2023-04-01T00:54:49;14.43;;;1.37;;
17171;SDS011;8701;50.150;8.756;2023-04-01T00:58:56;3.93;;;1.00;;
17171;SDS011;8701;50.150;8.756;2023-04-01T01:03:01;6.17;;;1.20;;
17171;SDS011;8701;50.150;8.756;2023-04-01T01:07:07;6.07;;;1.37;;
17171;SDS011;8701;50.150;8.756;2023-04-01T01:11:18;5.40;;;1.30;;
17171;SDS011;8701;50.150;8.756;2023-04-01T01:15:30;4.97;;;1.57;;
17171;SDS011;8701;50.150;8.756;2023-04-01T01:29:00;6.13;;;1.30;;
17171;SDS011;8701;50.150;8.756;2023-04-01T01:37:56;6.60;;;1.77;;
17171;SDS011;8701;50.150;8.756;2023-04-01T01:42:04;3.77;;;1.20;;
17171;SDS011;8701;50.150;8.756;2023-04-01T01:46:10;8.97;;;1.47;;
17171;SDS011;8701;50.150;8.756;2023-04-01T01:50:16;6.10;;;1.03;;
17171;SDS011;8701;50.150;8.756;2023-04-01T01:54:23;4.93;;;2.07;;
17171;SDS011;8701;50.150;8.756;2023-04-01T01:58:27;10.23;;;1.90;;
17171;SDS011;8701;50.150;8.756;2023-04-01T02:02:32;6.37;;;1.10;;
17171;SDS011;8701;50.150;8.756;2023-04-01T02:06:34;3.87;;;1.33;;
17171;SDS011;8701;50.150;8.756;2023-04-01T02:10:43;5.73;;;1.03;;
17171;SDS011;8701;50.150;8.756;2023-04-01T02:14:55;3.90;;;1.30;;
17171;SDS011;8701;50.150;8.756;2023-04-01T02:19:02;6.00;;;1.30;;
17171;SDS011;8701;50.150;8.756;2023-04-01T02:23:08;5.47;;;0.93;;
17171;SDS011;8701;50.150;8.756;2023-04-01T02:27:14;4.20;;;1.03;;
17171;SDS011;8701;50.150;8.756;2023-04-01T02:31:17;5.90;;;1.27;;
17171;SDS011;8701;50.150;8.756;2023-04-01T02:35:20;5.10;;;1.10;;
17171;SDS011;8701;50.150;8.756;2023-04-01T02:39:22;3.13;;;1.00;;
17171;SDS011;8701;50.150;8.756;2023-04-01T02:43:27;8.47;;;1.30;;
17171;SDS011;8701;50.150;8.756;2023-04-01T02:47:30;6.70;;;1.40;;
17171;SDS011;8701;50.150;8.756;2023-04-01T02:51:33;6.70;;;1.27;;
17171;SDS011;8701;50.150;8.756;2023-04-01T02:55:35;6.60;;;1.20;;
17171;SDS011;8701;50.150;8.756;2023-04-01T02:59:39;6.13;;;1.30;;
17171;SDS011;8701;50.150;8.756;2023-04-01T03:03:41;3.00;;;1.10;;
17171;SDS011;8701;50.150;8.756;2023-04-01T03:07:44;2.67;;;1.00;;
17171;SDS011;8701;50.150;8.756;2023-04-01T03:11:48;5.03;;;1.10;;
17171;SDS011;8701;50.150;8.756;2023-04-01T03:15:51;7.10;;;1.00;;
17171;SDS011;8701;50.150;8.756;2023-04-01T03:19:54;4.57;;;1.30;;
17171;SDS011;8701;50.150;8.756;2023-04-01T03:23:56;6.13;;;1.20;;
17171;SDS011;8701;50.150;8.756;2023-04-01T03:27:59;6.80;;;1.30;;
17171;SDS011;8701;50.150;8.756;2023-04-01T03:32:03;7.90;;;1.50;;
17171;SDS011;8701;50.150;8.756;2023-04-01T03:36:05;10.00;;;1.60;;
17171;SDS011;8701;50.150;8.756;2023-04-01T03:40:08;4.90;;;1.17;;
17171;SDS011;8701;50.150;8.756;2023-04-01T03:44:11;4.83;;;1.30;;
17171;SDS011;8701;50.150;8.756;2023-04-01T03:48:15;7.33;;;1.40;;
17171;SDS011;8701;50.150;8.756;2023-04-01T03:52:18;8.10;;;1.47;;
17171;SDS011;8701;50.150;8.756;2023-04-01T03:56:20;4.10;;;1.10;;
17171;SDS011;8701;50.150;8.756;2023-04-01T04:00:24;6.00;;;1.50;;
17171;SDS011;8701;50.150;8.756;2023-04-01T04:04:30;9.60;;;1.30;;
17171;SDS011;8701;50.150;8.756;2023-04-01T04:08:33;6.77;;;1.30;;
17171;SDS011;8701;50.150;8.756;2023-04-01T04:12:35;7.83;;;1.40;;
17171;SDS011;8701;50.150;8.756;2023-04-01T04:16:37;10.53;;;1.10;;
17171;SDS011;8701;50.150;8.756;2023-04-01T04:20:44;5.30;;;1.00;;
17171;SDS011;8701;50.150;8.756;2023-04-01T04:24:49;3.90;;;1.00;;
17171;SDS011;8701;50.150;8.756;2023-04-01T04:28:53;7.00;;;1.10;;
17171;SDS011;8701;50.150;8.756;2023-04-01T04:32:55;4.97;;;1.10;;
17171;SDS011;8701;50.150;8.756;2023-04-01T04:36:59;4.60;;;1.97;;
17171;SDS011;8701;50.150;8.756;2023-04-01T04:41:08;5.43;;;1.13;;
17171;SDS011;8701;50.150;8.756;2023-04-01T04:45:12;4.00;;;1.10;;
17171;SDS011;8701;50.150;8.756;2023-04-01T04:49:22;8.60;;;1.47;;
17171;SDS011;8701;50.150;8.756;2023-04-01T04:53:26;3.50;;;1.00;;
17171;SDS011;8701;50.150;8.756;2023-04-01T04:57:29;6.83;;;1.20;;
17171;SDS011;8701;50.150;8.756;2023-04-01T05:01:31;8.10;;;1.30;;
17171;SDS011;8701;50.150;8.756;2023-04-01T05:05:34;4.97;;;1.40;;
17171;SDS011;8701;50.150;8.756;2023-04-01T05:09:39;5.47;;;1.20;;
17171;SDS011;8701;50.150;8.756;2023-04-01T05:13:42;5.87;;;1.33;;
17171;SDS011;8701;50.150;8.756;2023-04-01T05:17:45;7.93;;;1.50;;
17171;SDS011;8701;50.150;8.756;2023-04-01T05:21:49;5.00;;;1.30;;
17171;SDS011;8701;50.150;8.756;2023-04-01T05:25:55;3.93;;;1.17;;
17171;SDS011;8701;50.150;8.756;2023-04-01T05:29:57;3.93;;;1.10;;
17171;SDS011;8701;50.150;8.756;2023-04-01T05:34:15;3.00;;;1.10;;
17171;SDS011;8701;50.150;8.756;2023-04-01T05:38:18;7.20;;;1.57;;
17171;SDS011;8701;50.150;8.756;2023-04-01T05:42:22;4.50;;;1.30;;
17171;SDS011;8701;50.150;8.756;2023-04-01T05:46:24;10.17;;;1.40;;
17171;SDS011;8701;50.150;8.756;2023-04-01T05:50:40;12.30;;;1.30;;
17171;SDS011;8701;50.150;8.756;2023-04-01T05:54:44;4.63;;;1.00;;
17171;SDS011;8701;50.150;8.756;2023-04-01T05:58:50;8.03;;;1.23;;
17171;SDS011;8701;50.150;8.756;2023-04-01T06:02:57;4.23;;;1.30;;
17171;SDS011;8701;50.150;8.756;2023-04-01T06:07:00;4.70;;;1.13;;
17171;SDS011;8701;50.150;8.756;2023-04-01T06:11:05;4.43;;;1.10;;
17171;SDS011;8701;50.150;8.756;2023-04-01T06:15:29;3.23;;;1.00;;
17171;SDS011;8701;50.150;8.756;2023-04-01T06:19:43;5.10;;;1.10;;
17171;SDS011;8701;50.150;8.756;2023-04-01T06:23:56;4.07;;;1.30;;
17171;SDS011;8701;50.150;8.756;2023-04-01T06:28:22;6.00;;;1.07;;
17171;SDS011;8701;50.150;8.756;2023-04-01T06:32:51;3.43;;;1.20;;
17171;SDS011;8701;50.150;8.756;2023-04-01T06:37:11;8.03;;;1.27;;
17171;SDS011;8701;50.150;8.756;2023-04-01T06:46:07;3.93;;;1.10;;
17171;SDS011;8701;50.150;8.756;2023-04-01T06:50:39;2.90;;;1.00;;
17171;SDS011;8701;50.150;8.756;2023-04-01T06:55:12;5.10;;;1.60;;
17171;SDS011;8701;50.150;8.756;2023-04-01T06:59:41;7.60;;;1.13;;
17171;SDS011;8701;50.150;8.756;2023-04-01T07:03:47;3.03;;;0.80;;
17171;SDS011;8701;50.150;8.756;2023-04-01T07:07:54;8.07;;;1.83;;
17171;SDS011;8701;50.150;8.756;2023-04-01T07:12:04;3.17;;;1.20;;
17171;SDS011;8701;50.150;8.756;2023-04-01T07:16:36;7.50;;;1.50;;
17171;SDS011;8701;50.150;8.756;2023-04-01T07:20:42;5.03;;;1.30;;
17171;SDS011;8701;50.150;8.756;2023-04-01T07:24:45;6.20;;;1.50;;
17171;SDS011;8701;50.150;8.756;2023-04-01T07:28:48;6.43;;;1.20;;
17171;SDS011;8701;50.150;8.756;2023-04-01T07:33:13;2.73;;;0.87;;
17171;SDS011;8701;50.150;8.756;2023-04-01T07:37:22;2.83;;;1.10;;
17171;SDS011;8701;50.150;8.756;2023-04-01T07:41:32;6.27;;;1.30;;
17171;SDS011;8701;50.150;8.756;2023-04-01T07:45:48;5.67;;;1.50;;
17171;SDS011;8701;50.150;8.756;2023-04-01T07:50:01;4.50;;;1.47;;
17171;SDS011;8701;50.150;8.756;2023-04-01T07:54:13;3.00;;;0.90;;
17171;SDS011;8701;50.150;8.756;2023-04-01T07:58:24;5.03;;;1.10;;
17171;SDS011;8701;50.150;8.756;2023-04-01T08:02:36;4.30;;;1.30;;
17171;SDS011;8701;50.150;8.756;2023-04-01T08:06:52;6.50;;;2.23;;
17171;SDS011;8701;50.150;8.756;2023-04-01T08:11:02;3.07;;;0.90;;
17171;SDS011;8701;50.150;8.756;2023-04-01T08:15:36;2.83;;;0.90;;
17171;SDS011;8701;50.150;8.756;2023-04-01T08:19:56;5.47;;;1.10;;
17171;SDS011;8701;50.150;8.756;2023-04-01T08:24:11;3.20;;;1.00;;
17171;SDS011;8701;50.150;8.756;2023-04-01T08:28:23;6.07;;;1.20;;
17171;SDS011;8701;50.150;8.756;2023-04-01T08:32:32;5.90;;;1.10;;
17171;SDS011;8701;50.150;8.756;2023-04-01T08:36:38;2.70;;;0.90;;
17171;SDS011;8701;50.150;8.756;2023-04-01T08:40:57;4.33;;;1.40;;
17171;SDS011;8701;50.150;8.756;2023-04-01T08:45:21;3.40;;;0.90;;
17171;SDS011;8701;50.150;8.756;2023-04-01T08:49:39;3.00;;;0.80;;
17171;SDS011;8701;50.150;8.756;2023-04-01T08:54:26;3.10;;;0.80;;
17171;SDS011;8701;50.150;8.756;2023-04-01T08:58:46;3.20;;;1.20;;
17171;SDS011;8701;50.150;8.756;2023-04-01T09:03:20;4.60;;;0.90;;
17171;SDS011;8701;50.150;8.756;2023-04-01T09:07:34;4.30;;;2.10;;
17171;SDS011;8701;50.150;8.756;2023-04-01T09:11:59;3.07;;;1.00;;
17171;SDS011;8701;50.150;8.756;2023-04-01T09:16:21;3.90;;;0.80;;
17171;SDS011;8701;50.150;8.756;2023-04-01T09:20:42;2.30;;;0.70;;
17171;SDS011;8701;50.150;8.756;2023-04-01T09:29:31;6.43;;;1.53;;
17171;SDS011;8701;50.150;8.756;2023-04-01T09:34:02;6.70;;;1.07;;
17171;SDS011;8701;50.150;8.756;2023-04-01T09:38:35;2.87;;;0.93;;
17171;SDS011;8701;50.150;8.756;2023-04-01T09:43:02;3.07;;;0.90;;
17171;SDS011;8701;50.150;8.756;2023-04-01T09:47:27;2.83;;;0.80;;
17171;SDS011;8701;50.150;8.756;2023-04-01T09:51:48;4.37;;;1.00;;
17171;SDS011;8701;50.150;8.756;2023-04-01T09:56:14;2.83;;;0.87;;
17171;SDS011;8701;50.150;8.756;2023-04-01T10:00:40;2.67;;;0.90;;
17171;SDS011;8701;50.150;8.756;2023-04-01T10:28:09;3.37;;;0.80;;
17171;SDS011;8701;50.150;8.756;2023-04-01T10:33:04;2.03;;;0.80;;
17171;SDS011;8701;50.150;8.756;2023-04-01T10:37:44;2.53;;;1.03;;
17171;SDS011;8701;50.150;8.756;2023-04-01T10:42:12;1.93;;;0.77;;
17171;SDS011;8701;50.150;8.756;2023-04-01T10:47:26;2.60;;;0.90;;
17171;SDS011;8701;50.150;8.756;2023-04-01T10:57:11;2.17;;;0.70;;
17171;SDS011;8701;50.150;8.756;2023-04-01T11:07:02;2.33;;;0.83;;
17171;SDS011;8701;50.150;8.756;2023-04-01T11:11:24;2.10;;;0.80;;
17171;SDS011;8701;50.150;8.756;2023-04-01T11:16:02;3.50;;;0.80;;
17171;SDS011;8701;50.150;8.756;2023-04-01T11:20:35;2.00;;;0.70;;
17171;SDS011;8701;50.150;8.756;2023-04-01T11:29:49;2.47;;;0.93;;
17171;SDS011;8701;50.150;8.756;2023-04-01T11:34:11;2.10;;;0.77;;
17171;SDS011;8701;50.150;8.756;2023-04-01T11:38:26;3.47;;;1.30;;
17171;SDS011;8701;50.150;8.756;2023-04-01T11:43:00;2.10;;;0.80;;
17171;SDS011;8701;50.150;8.756;2023-04-01T11:47:41;2.63;;;1.07;;
17171;SDS011;8701;50.150;8.756;2023-04-01T11:52:13;3.47;;;1.23;;
17171;SDS011;8701;50.150;8.756;2023-04-01T11:56:50;2.73;;;0.90;;
17171;SDS011;8701;50.150;8.756;2023-04-01T12:01:16;3.20;;;1.20;;
17171;SDS011;8701;50.150;8.756;2023-04-01T12:05:31;2.67;;;1.10;;
17171;SDS011;8701;50.150;8.756;2023-04-01T12:09:44;4.07;;;1.20;;
17171;SDS011;8701;50.150;8.756;2023-04-01T12:13:55;2.63;;;1.03;;
17171;SDS011;8701;50.150;8.756;2023-04-01T12:18:05;2.60;;;0.90;;
17171;SDS011;8701;50.150;8.756;2023-04-01T12:22:23;2.40;;;0.90;;
17171;SDS011;8701;50.150;8.756;2023-04-01T12:26:46;2.00;;;0.73;;
17171;SDS011;8701;50.150;8.756;2023-04-01T12:30:58;2.00;;;0.87;;
17171;SDS011;8701;50.150;8.756;2023-04-01T12:35:21;3.00;;;0.97;;
17171;SDS011;8701;50.150;8.756;2023-04-01T12:39:35;2.23;;;0.90;;
17171;SDS011;8701;50.150;8.756;2023-04-01T12:48:23;3.03;;;1.27;;
17171;SDS011;8701;50.150;8.756;2023-04-01T12:52:43;11.27;;;1.03;;
17171;SDS011;8701;50.150;8.756;2023-04-01T12:57:01;3.20;;;1.00;;
17171;SDS011;8701;50.150;8.756;2023-04-01T13:01:27;2.20;;;1.00;;
17171;SDS011;8701;50.150;8.756;2023-04-01T13:05:54;4.20;;;1.30;;
17171;SDS011;8701;50.150;8.756;2023-04-01T13:10:20;2.63;;;1.10;;
17171;SDS011;8701;50.150;8.756;2023-04-01T13:14:35;3.03;;;1.20;;
17171;SDS011;8701;50.150;8.756;2023-04-01T13:18:54;2.13;;;0.90;;
17171;SDS011;8701;50.150;8.756;2023-04-01T13:23:05;5.33;;;1.43;;
17171;SDS011;8701;50.150;8.756;2023-04-01T13:27:17;2.80;;;1.20;;
17171;SDS011;8701;50.150;8.756;2023-04-01T13:31:28;3.20;;;1.10;;
17171;SDS011;8701;50.150;8.756;2023-04-01T13:35:53;3.67;;;1.40;;
17171;SDS011;8701;50.150;8.756;2023-04-01T13:40:26;4.03;;;1.90;;
17171;SDS011;8701;50.150;8.756;2023-04-01T13:44:38;3.23;;;1.30;;
17171;SDS011;8701;50.150;8.756;2023-04-01T13:48:50;3.17;;;1.10;;
17171;SDS011;8701;50.150;8.756;2023-04-01T13:53:27;5.43;;;1.00;;
17171;SDS011;8701;50.150;8.756;2023-04-01T13:58:04;2.73;;;0.90;;
17171;SDS011;8701;50.150;8.756;2023-04-01T14:02:34;3.10;;;1.00;;
17171;SDS011;8701;50.150;8.756;2023-04-01T14:06:51;3.83;;;1.10;;
17171;SDS011;8701;50.150;8.756;2023-04-01T14:11:07;3.00;;;0.83;;
17171;SDS011;8701;50.150;8.756;2023-04-01T14:15:30;4.07;;;0.90;;
17171;SDS011;8701;50.150;8.756;2023-04-01T14:19:56;3.10;;;0.90;;
17171;SDS011;8701;50.150;8.756;2023-04-01T14:24:21;2.63;;;0.90;;
17171;SDS011;8701;50.150;8.756;2023-04-01T14:28:36;4.20;;;1.00;;
17171;SDS011;8701;50.150;8.756;2023-04-01T14:32:47;3.27;;;0.80;;
17171;SDS011;8701;50.150;8.756;2023-04-01T14:37:01;3.40;;;0.90;;
17171;SDS011;8701;50.150;8.756;2023-04-01T14:41:19;2.40;;;0.70;;
17171;SDS011;8701;50.150;8.756;2023-04-01T14:45:33;3.03;;;1.00;;
17171;SDS011;8701;50.150;8.756;2023-04-01T14:49:49;3.67;;;1.53;;
17171;SDS011;8701;50.150;8.756;2023-04-01T14:53:58;3.47;;;0.90;;
17171;SDS011;8701;50.150;8.756;2023-04-01T14:58:09;2.77;;;0.90;;
17171;SDS011;8701;50.150;8.756;2023-04-01T15:02:18;2.77;;;1.10;;
17171;SDS011;8701;50.150;8.756;2023-04-01T15:06:45;2.50;;;0.80;;
17171;SDS011;8701;50.150;8.756;2023-04-01T15:11:11;2.63;;;0.80;;
17171;SDS011;8701;50.150;8.756;2023-04-01T15:15:24;3.73;;;1.20;;
17171;SDS011;8701;50.150;8.756;2023-04-01T15:19:38;3.00;;;1.00;;
17171;SDS011;8701;50.150;8.756;2023-04-01T15:23:54;3.57;;;1.30;;
17171;SDS011;8701;50.150;8.756;2023-04-01T15:28:01;3.20;;;1.30;;
17171;SDS011;8701;50.150;8.756;2023-04-01T15:32:16;3.20;;;1.20;;
17171;SDS011;8701;50.150;8.756;2023-04-01T15:36:27;6.13;;;1.20;;
17171;SDS011;8701;50.150;8.756;2023-04-01T15:40:40;3.10;;;1.13;;
17171;SDS011;8701;50.150;8.756;2023-04-01T15:44:51;3.50;;;1.30;;
17171;SDS011;8701;50.150;8.756;2023-04-01T15:49:03;4.93;;;1.83;;
17171;SDS011;8701;50.150;8.756;2023-04-01T15:53:15;3.43;;;1.70;;
17171;SDS011;8701;50.150;8.756;2023-04-01T15:57:28;3.00;;;1.10;;
17171;SDS011;8701;50.150;8.756;2023-04-01T16:01:38;3.57;;;1.37;;
17171;SDS011;8701;50.150;8.756;2023-04-01T16:05:50;3.57;;;1.50;;
17171;SDS011;8701;50.150;8.756;2023-04-01T16:10:08;3.10;;;1.07;;
17171;SDS011;8701;50.150;8.756;2023-04-01T16:14:23;5.23;;;2.00;;
17171;SDS011;8701;50.150;8.756;2023-04-01T16:18:39;3.40;;;1.50;;
17171;SDS011;8701;50.150;8.756;2023-04-01T16:22:53;3.77;;;1.57;;
17171;SDS011;8701;50.150;8.756;2023-04-01T16:27:02;3.87;;;1.50;;
17171;SDS011;8701;50.150;8.756;2023-04-01T16:31:12;3.47;;;1.20;;
17171;SDS011;8701;50.150;8.756;2023-04-01T16:35:29;2.60;;;0.90;;
17171;SDS011;8701;50.150;8.756;2023-04-01T16:39:37;2.43;;;0.90;;
17171;SDS011;8701;50.150;8.756;2023-04-01T16:43:48;2.60;;;1.10;;
17171;SDS011;8701;50.150;8.756;2023-04-01T16:47:56;3.73;;;1.30;;
17171;SDS011;8701;50.150;8.756;2023-04-01T16:52:16;3.03;;;0.83;;
17171;SDS011;8701;50.150;8.756;2023-04-01T16:56:36;2.27;;;0.90;;
17171;SDS011;8701;50.150;8.756;2023-04-01T17:00:47;2.20;;;0.80;;
17171;SDS011;8701;50.150;8.756;2023-04-01T17:04:52;2.70;;;0.93;;
17171;SDS011;8701;50.150;8.756;2023-04-01T17:09:02;4.70;;;1.30;;
17171;SDS011;8701;50.150;8.756;2023-04-01T17:13:27;2.23;;;0.70;;
17171;SDS011;8701;50.150;8.756;2023-04-01T17:17:40;5.83;;;0.90;;
17171;SDS011;8701;50.150;8.756;2023-04-01T17:21:49;2.20;;;0.83;;
17171;SDS011;8701;50.150;8.756;2023-04-01T17:26:12;2.50;;;0.80;;
17171;SDS011;8701;50.150;8.756;2023-04-01T17:30:24;2.90;;;0.97;;
17171;SDS011;8701;50.150;8.756;2023-04-01T17:34:37;2.40;;;1.00;;
17171;SDS011;8701;50.150;8.756;2023-04-01T17:38:51;3.00;;;0.90;;
17171;SDS011;8701;50.150;8.756;2023-04-01T17:43:03;2.50;;;0.90;;
17171;SDS011;8701;50.150;8.756;2023-04-01T17:47:29;2.47;;;0.90;;
17171;SDS011;8701;50.150;8.756;2023-04-01T17:51:40;4.47;;;1.83;;
17171;SDS011;8701;50.150;8.756;2023-04-01T17:55:49;2.60;;;1.10;;
17171;SDS011;8701;50.150;8.756;2023-04-01T18:00:01;2.93;;;1.03;;
17171;SDS011;8701;50.150;8.756;2023-04-01T18:04:17;3.40;;;1.40;;
17171;SDS011;8701;50.150;8.756;2023-04-01T18:08:34;4.97;;;1.47;;
17171;SDS011;8701;50.150;8.756;2023-04-01T18:13:04;3.23;;;1.40;;
17171;SDS011;8701;50.150;8.756;2023-04-01T18:17:24;3.37;;;1.57;;
17171;SDS011;8701;50.150;8.756;2023-04-01T18:21:30;4.17;;;1.90;;
17171;SDS011;8701;50.150;8.756;2023-04-01T18:25:46;3.70;;;1.40;;
17171;SDS011;8701;50.150;8.756;2023-04-01T18:29:50;3.50;;;1.60;;
17171;SDS011;8701;50.150;8.756;2023-04-01T18:33:56;2.80;;;1.40;;
17171;SDS011;8701;50.150;8.756;2023-04-01T18:38:04;2.60;;;1.20;;
17171;SDS011;8701;50.150;8.756;2023-04-01T18:42:16;3.70;;;1.00;;
17171;SDS011;8701;50.150;8.756;2023-04-01T18:46:30;3.17;;;1.30;;
17171;SDS011;8701;50.150;8.756;2023-04-01T18:50:41;2.87;;;1.20;;
17171;SDS011;8701;50.150;8.756;2023-04-01T18:55:14;3.10;;;1.40;;
17171;SDS011;8701;50.150;8.756;2023-04-01T18:59:29;4.30;;;1.67;;
17171;SDS011;8701;50.150;8.756;2023-04-01T19:03:39;5.60;;;1.30;;
17171;SDS011;8701;50.150;8.756;2023-04-01T19:07:47;2.93;;;1.30;;
17171;SDS011;8701;50.150;8.756;2023-04-01T19:11:58;4.93;;;0.93;;
17171;SDS011;8701;50.150;8.756;2023-04-01T19:16:12;3.57;;;1.27;;
17171;SDS011;8701;50.150;8.756;2023-04-01T19:20:29;3.63;;;1.10;;
17171;SDS011;8701;50.150;8.756;2023-04-01T19:24:39;2.60;;;1.00;;
17171;SDS011;8701;50.150;8.756;2023-04-01T19:29:00;2.27;;;0.90;;
17171;SDS011;8701;50.150;8.756;2023-04-01T19:33:12;2.87;;;1.27;;
17171;SDS011;8701;50.150;8.756;2023-04-01T19:37:26;2.57;;;1.00;;
17171;SDS011;8701;50.150;8.756;2023-04-01T19:41:36;3.37;;;1.30;;
17171;SDS011;8701;50.150;8.756;2023-04-01T19:45:47;2.60;;;1.10;;
17171;SDS011;8701;50.150;8.756;2023-04-01T19:49:57;4.10;;;1.27;;
17171;SDS011;8701;50.150;8.756;2023-04-01T19:54:11;5.00;;;1.40;;
17171;SDS011;8701;50.150;8.756;2023-04-01T19:58:23;2.80;;;1.20;;
17171;SDS011;8701;50.150;8.756;2023-04-01T20:02:33;3.10;;;1.23;;
17171;SDS011;8701;50.150;8.756;2023-04-01T20:06:43;2.90;;;1.23;;
17171;SDS011;8701;50.150;8.756;2023-04-01T20:10:56;3.40;;;1.20;;
17171;SDS011;8701;50.150;8.756;2023-04-01T20:15:19;2.43;;;0.90;;
17171;SDS011;8701;50.150;8.756;2023-04-01T20:19:33;3.30;;;1.40;;
17171;SDS011;8701;50.150;8.756;2023-04-01T20:23:41;3.53;;;1.27;;
17171;SDS011;8701;50.150;8.756;2023-04-01T20:27:47;2.60;;;1.17;;
17171;SDS011;8701;50.150;8.756;2023-04-01T20:31:55;2.07;;;0.80;;
17171;SDS011;8701;50.150;8.756;2023-04-01T20:36:08;4.93;;;1.40;;
17171;SDS011;8701;50.150;8.756;2023-04-01T20:40:28;2.93;;;1.33;;
17171;SDS011;8701;50.150;8.756;2023-04-01T20:44:34;7.67;;;2.60;;
17171;SDS011;8701;50.150;8.756;2023-04-01T20:48:51;5.80;;;2.17;;
17171;SDS011;8701;50.150;8.756;2023-04-01T20:53:11;4.63;;;1.70;;
17171;SDS011;8701;50.150;8.756;2023-04-01T20:57:19;3.03;;;1.30;;
17171;SDS011;8701;50.150;8.756;2023-04-01T21:01:28;2.57;;;1.07;;
17171;SDS011;8701;50.150;8.756;2023-04-01T21:05:47;3.50;;;1.23;;
17171;SDS011;8701;50.150;8.756;2023-04-01T21:10:11;2.50;;;1.00;;
17171;SDS011;8701;50.150;8.756;2023-04-01T21:14:42;2.43;;;1.10;;
17171;SDS011;8701;50.150;8.756;2023-04-01T21:19:01;4.63;;;1.40;;
17171;SDS011;8701;50.150;8.756;2023-04-01T21:23:15;2.83;;;1.20;;
17171;SDS011;8701;50.150;8.756;2023-04-01T21:27:42;3.10;;;1.40;;
17171;SDS011;8701;50.150;8.756;2023-04-01T21:36:47;2.80;;;1.30;;
17171;SDS011;8701;50.150;8.756;2023-04-01T21:45:46;3.20;;;1.60;;
17171;SDS011;8701;50.150;8.756;2023-04-01T21:50:07;5.47;;;1.90;;
17171;SDS011;8701;50.150;8.756;2023-04-01T21:54:39;5.10;;;1.90;;
17171;SDS011;8701;50.150;8.756;2023-04-01T21:59:07;3.33;;;1.40;;
17171;SDS011;8701;50.150;8.756;2023-04-01T22:08:15;3.93;;;2.00;;
17171;SDS011;8701;50.150;8.756;2023-04-01T22:12:34;4.23;;;2.03;;
17171;SDS011;8701;50.150;8.756;2023-04-01T22:16:40;11.83;;;2.47;;
17171;SDS011;8701;50.150;8.756;2023-04-01T22:20:49;4.67;;;2.27;;
17171;SDS011;8701;50.150;8.756;2023-04-01T22:25:02;3.73;;;1.80;;
17171;SDS011;8701;50.150;8.756;2023-04-01T22:29:10;4.80;;;2.53;;
17171;SDS011;8701;50.150;8.756;2023-04-01T22:33:16;7.53;;;2.70;;
17171;SDS011;8701;50.150;8.756;2023-04-01T22:37:28;4.20;;;2.40;;
17171;SDS011;8701;50.150;8.756;2023-04-01T22:41:43;4.13;;;2.20;;
17171;SDS011;8701;50.150;8.756;2023-04-01T22:46:03;4.30;;;2.30;;
17171;SDS011;8701;50.150;8.756;2023-04-01T22:50:18;4.10;;;2.43;;
17171;SDS011;8701;50.150;8.756;2023-04-01T22:54:23;11.43;;;3.93;;
17171;SDS011;8701;50.150;8.756;2023-04-01T22:58:32;7.57;;;2.97;;
17171;SDS011;8701;50.150;8.756;2023-04-01T23:02:39;11.90;;;3.47;;
17171;SDS011;8701;50.150;8.756;2023-04-01T23:06:47;11.93;;;6.40;;
17171;SDS011;8701;50.150;8.756;2023-04-01T23:10:54;8.43;;;5.40;;
17171;SDS011;8701;50.150;8.756;2023-04-01T23:15:00;4.10;;;2.20;;
17171;SDS011;8701;50.150;8.756;2023-04-01T23:19:04;3.90;;;2.00;;
17171;SDS011;8701;50.150;8.756;2023-04-01T23:23:29;3.53;;;1.67;;
17171;SDS011;8701;50.150;8.756;2023-04-01T23:27:37;4.67;;;1.83;;
17171;SDS011;8701;50.150;8.756;2023-04-01T23:31:46;2.67;;;1.30;;
17171;SDS011;8701;50.150;8.756;2023-04-01T23:35:50;3.37;;;1.50;;
17171;SDS011;8701;50.150;8.756;2023-04-01T23:39:54;2.77;;;1.33;;
17171;SDS011;8701;50.150;8.756;2023-04-01T23:44:00;3.37;;;1.63;;
17171;SDS011;8701;50.150;8.756;2023-04-01T23:48:05;2.87;;;1.57;;
17171;SDS011;8701;50.150;8.756;2023-04-01T23:52:13;5.00;;;2.10;;
17171;SDS011;8701;50.150;8.756;2023-04-01T23:56:18;3.00;;;1.70;;
